createdAt,value
2018-06-08T00:01:44.075Z,5.43
2018-06-08T00:05:08.900Z,6.37
2018-06-08T00:08:33.622Z,5.93
2018-06-08T00:11:58.418Z,6.23
2018-06-08T00:15:23.362Z,6.87
2018-06-08T00:18:48.229Z,6.53
2018-06-08T00:22:18.430Z,6.63
2018-06-08T00:25:42.934Z,7.07
2018-06-08T00:29:07.927Z,5.83
2018-06-08T00:32:32.823Z,6.43
2018-06-08T00:35:57.712Z,7.13
2018-06-08T00:39:22.756Z,7.13
2018-06-08T00:42:47.783Z,6.73
2018-06-08T00:46:12.852Z,7.37
2018-06-08T00:49:38.707Z,7.20
2018-06-08T00:53:04.811Z,7.00
2018-06-08T00:56:46.518Z,7.30
2018-06-08T01:00:11.811Z,8.37
2018-06-08T01:03:37.618Z,7.23
2018-06-08T01:07:02.666Z,7.83
2018-06-08T01:10:27.641Z,7.13
2018-06-08T01:13:52.764Z,6.67
2018-06-08T01:17:17.638Z,7.13
2018-06-08T01:20:42.542Z,7.30
2018-06-08T01:24:07.560Z,7.10
2018-06-08T01:27:32.348Z,7.10
2018-06-08T01:30:57.252Z,8.37
2018-06-08T01:34:21.845Z,7.10
2018-06-08T01:37:46.429Z,7.53
2018-06-08T01:41:11.290Z,8.70
2018-06-08T01:44:36.196Z,7.47
2018-06-08T01:48:01.290Z,6.67
2018-06-08T01:51:26.380Z,7.93
2018-06-08T01:54:51.358Z,7.30
2018-06-08T01:58:16.283Z,6.90
2018-06-08T02:01:41.288Z,6.73
2018-06-08T02:05:06.399Z,6.80
2018-06-08T02:08:31.348Z,7.27
2018-06-08T02:11:56.128Z,6.37
2018-06-08T02:15:20.875Z,6.43
2018-06-08T02:18:45.802Z,7.37
2018-06-08T02:22:10.598Z,7.17
2018-06-08T02:25:35.367Z,6.53
2018-06-08T02:29:00.111Z,6.70
2018-06-08T02:32:24.979Z,6.57
2018-06-08T02:35:50.073Z,8.40
2018-06-08T02:39:14.784Z,6.83
2018-06-08T02:42:39.708Z,6.27
2018-06-08T02:46:05.868Z,6.37
2018-06-08T02:49:30.801Z,6.53
2018-06-08T02:52:55.842Z,6.70
2018-06-08T02:56:20.842Z,6.43
2018-06-08T02:59:45.429Z,6.50
2018-06-08T03:03:10.347Z,6.20
2018-06-08T03:06:35.387Z,6.80
2018-06-08T03:10:00.447Z,8.50
2018-06-08T03:13:27.129Z,6.10
2018-06-08T03:16:52.155Z,7.17
2018-06-08T03:20:16.932Z,6.93
2018-06-08T03:23:41.925Z,6.60
2018-06-08T03:27:06.707Z,7.03
2018-06-08T03:30:31.618Z,6.13
2018-06-08T03:33:56.607Z,6.90
2018-06-08T03:37:23.451Z,6.90
2018-06-08T03:40:48.315Z,7.70
2018-06-08T03:44:13.171Z,7.27
2018-06-08T03:47:38.089Z,6.33
2018-06-08T03:51:02.945Z,7.00
2018-06-08T03:54:28.539Z,6.97
2018-06-08T03:57:53.581Z,6.93
2018-06-08T04:01:18.583Z,6.90
2018-06-08T04:04:43.565Z,6.40
2018-06-08T04:08:08.511Z,6.60
2018-06-08T04:11:33.397Z,6.97
2018-06-08T04:14:58.334Z,7.73
2018-06-08T04:18:23.186Z,6.67
2018-06-08T04:21:47.954Z,7.63
2018-06-08T04:25:12.955Z,6.80
2018-06-08T04:28:37.865Z,7.30
2018-06-08T04:32:01.743Z,7.40
2018-06-08T04:35:26.738Z,6.87
2018-06-08T04:38:51.916Z,6.73
2018-06-08T04:42:16.894Z,7.27
2018-06-08T04:45:42.082Z,6.60
2018-06-08T04:49:06.719Z,7.67
2018-06-08T04:52:31.417Z,5.53
2018-06-08T04:55:56.476Z,6.30
2018-06-08T04:59:21.923Z,7.47
2018-06-08T05:02:46.673Z,6.57
2018-06-08T05:06:11.817Z,8.63
2018-06-08T05:09:36.896Z,6.80
2018-06-08T05:13:01.955Z,7.30
2018-06-08T05:16:26.867Z,6.33
2018-06-08T05:19:51.742Z,7.40
2018-06-08T05:23:17.380Z,6.93
2018-06-08T05:26:42.333Z,7.43
2018-06-08T05:30:13.749Z,7.47
2018-06-08T05:33:38.770Z,7.73
2018-06-08T05:37:03.549Z,8.83
2018-06-08T05:40:28.384Z,7.03
2018-06-08T05:43:53.300Z,6.83
2018-06-08T05:47:18.318Z,8.37
2018-06-08T05:50:43.340Z,7.67
2018-06-08T05:54:08.438Z,7.10
2018-06-08T05:57:33.377Z,7.60
2018-06-08T06:00:58.397Z,7.73
2018-06-08T06:04:23.391Z,8.60
2018-06-08T06:07:49.021Z,6.50
2018-06-08T06:11:14.005Z,5.67
2018-06-08T06:14:39.237Z,6.30
2018-06-08T06:18:05.514Z,7.03
2018-06-08T06:21:30.584Z,6.53
2018-06-08T06:24:55.595Z,6.23
2018-06-08T06:28:20.611Z,8.63
2018-06-08T06:31:45.702Z,5.67
2018-06-08T06:35:10.681Z,7.20
2018-06-08T06:38:35.750Z,6.47
2018-06-08T06:42:00.695Z,6.27
2018-06-08T06:45:25.652Z,6.77
2018-06-08T06:48:50.570Z,7.50
2018-06-08T06:52:15.677Z,6.77
2018-06-08T06:55:40.618Z,7.10
2018-06-08T06:59:06.960Z,7.27
2018-06-08T07:02:32.951Z,6.83
2018-06-08T07:05:58.005Z,8.07
2018-06-08T07:09:24.129Z,7.17
2018-06-08T07:12:49.146Z,7.43
2018-06-08T07:16:13.599Z,8.70
2018-06-08T07:19:38.684Z,7.73
2018-06-08T07:23:04.184Z,7.47
2018-06-08T07:26:30.962Z,8.97
2018-06-08T07:29:56.195Z,8.07
2018-06-08T07:33:21.171Z,8.17
2018-06-08T07:36:47.149Z,8.40
2018-06-08T07:40:12.391Z,9.33
2018-06-08T07:43:37.203Z,8.43
2018-06-08T07:47:01.640Z,8.90
2018-06-08T07:50:26.509Z,9.63
2018-06-08T07:53:51.413Z,10.03
2018-06-08T07:57:16.331Z,9.27
2018-06-08T08:00:41.179Z,10.23
2018-06-08T08:04:06.069Z,13.43
2018-06-08T08:07:32.284Z,9.50
2018-06-08T08:10:57.110Z,10.70
2018-06-08T08:14:22.092Z,10.07
2018-06-08T08:17:46.998Z,7.83
2018-06-08T08:21:11.835Z,9.97
2018-06-08T08:24:36.708Z,9.33
2018-06-08T08:28:01.255Z,10.63
2018-06-08T08:31:26.316Z,10.97
2018-06-08T08:34:51.060Z,10.97
2018-06-08T08:38:15.958Z,9.70
2018-06-08T08:41:40.720Z,9.63
2018-06-08T08:45:05.381Z,9.73
2018-06-08T08:48:30.200Z,10.53
2018-06-08T08:51:55.453Z,8.77
2018-06-08T08:55:22.411Z,11.90
2018-06-08T08:58:47.729Z,10.53
2018-06-08T09:02:13.600Z,11.40
2018-06-08T09:05:39.767Z,10.30
2018-06-08T09:09:06.090Z,8.83
2018-06-08T09:12:31.009Z,10.93
2018-06-08T09:15:56.203Z,10.13
2018-06-08T09:19:21.523Z,11.00
2018-06-08T09:22:46.518Z,10.83
2018-06-08T09:26:11.600Z,9.23
2018-06-08T09:29:37.996Z,11.13
2018-06-08T09:33:02.807Z,11.87
2018-06-08T09:36:27.987Z,10.90
2018-06-08T09:39:52.872Z,11.37
2018-06-08T09:43:17.910Z,12.83
2018-06-08T09:46:42.977Z,12.93
2018-06-08T09:50:07.869Z,14.57
2018-06-08T09:53:32.987Z,12.03
2018-06-08T09:56:58.868Z,11.23
2018-06-08T10:00:29.243Z,12.40
2018-06-08T10:03:54.511Z,12.50
2018-06-08T10:07:24.337Z,14.03
2018-06-08T10:10:54.853Z,12.87
2018-06-08T10:14:20.951Z,13.77
2018-06-08T10:17:47.781Z,14.07
2018-06-08T10:21:13.701Z,13.37
2018-06-08T10:24:40.489Z,11.60
2018-06-08T10:28:06.482Z,12.10
2018-06-08T10:31:33.151Z,11.13
2018-06-08T10:34:59.837Z,12.23
2018-06-08T10:38:25.055Z,11.53
2018-06-08T10:41:50.272Z,11.93
2018-06-08T10:45:15.702Z,12.30
2018-06-08T10:48:40.533Z,11.57
2018-06-08T10:52:05.031Z,11.67
2018-06-08T10:55:29.991Z,11.30
2018-06-08T10:58:54.968Z,12.20
2018-06-08T11:02:21.036Z,13.57
2018-06-08T11:05:45.974Z,14.43
2018-06-08T11:09:11.181Z,12.90
2018-06-08T11:12:36.962Z,13.73
2018-06-08T11:16:02.090Z,14.73
2018-06-08T11:19:29.271Z,12.33
2018-06-08T11:22:54.924Z,14.13
2018-06-08T11:26:20.070Z,14.77
2018-06-08T11:29:46.622Z,13.00
2018-06-08T11:33:11.419Z,12.53
2018-06-08T11:36:36.263Z,10.27
2018-06-08T11:40:01.645Z,9.00
2018-06-08T11:43:27.473Z,10.40
2018-06-08T11:46:52.364Z,10.17
2018-06-08T11:50:17.159Z,9.93
2018-06-08T11:53:43.126Z,9.23
2018-06-08T11:57:08.256Z,9.13
2018-06-08T12:00:36.221Z,9.07
2018-06-08T12:04:01.066Z,9.17
2018-06-08T12:07:25.959Z,10.23
2018-06-08T12:10:51.022Z,8.87
2018-06-08T12:14:17.242Z,10.00
2018-06-08T12:17:42.203Z,9.57
2018-06-08T12:21:07.903Z,7.90
2018-06-08T12:24:33.044Z,8.27
2018-06-08T12:27:57.939Z,8.57
2018-06-08T12:31:23.548Z,8.97
2018-06-08T12:34:49.407Z,9.90
2018-06-08T12:38:15.318Z,7.80
2018-06-08T12:41:40.881Z,7.90
2018-06-08T12:45:08.204Z,7.03
2018-06-08T12:48:35.874Z,7.23
2018-06-08T12:52:04.447Z,8.07
2018-06-08T12:55:31.095Z,9.83
2018-06-08T12:58:57.248Z,9.20
2018-06-08T13:02:25.017Z,9.00
2018-06-08T13:05:50.917Z,9.67
2018-06-08T13:09:17.972Z,9.23
2018-06-08T13:12:43.738Z,8.83
2018-06-08T13:16:10.068Z,9.23
2018-06-08T13:19:37.663Z,7.73
2018-06-08T13:23:03.525Z,7.97
2018-06-08T13:26:30.513Z,8.37
2018-06-08T13:29:56.099Z,8.73
2018-06-08T13:33:21.121Z,8.30
2018-06-08T13:36:46.411Z,10.43
2018-06-08T13:40:13.895Z,9.60
2018-06-08T13:43:39.511Z,10.00
2018-06-08T13:47:06.420Z,10.00
2018-06-08T13:50:31.737Z,11.33
2018-06-08T13:53:56.758Z,10.07
2018-06-08T13:57:21.932Z,9.00
2018-06-08T14:00:48.031Z,10.33
2018-06-08T14:04:13.705Z,9.80
2018-06-08T14:07:38.731Z,9.47
2018-06-08T14:11:04.312Z,9.50
2018-06-08T14:14:30.601Z,9.50
2018-06-08T14:17:55.550Z,10.47
2018-06-08T14:21:20.136Z,11.93
2018-06-08T14:24:46.176Z,8.60
2018-06-08T14:28:14.935Z,8.13
2018-06-08T14:31:40.026Z,8.03
2018-06-08T14:35:05.009Z,8.20
2018-06-08T14:38:30.173Z,8.00
2018-06-08T14:41:55.261Z,5.83
2018-06-08T14:45:20.359Z,7.17
2018-06-08T14:48:45.332Z,6.43
2018-06-08T14:52:10.365Z,7.03
2018-06-08T14:55:35.419Z,8.13
2018-06-08T14:59:00.338Z,7.23
2018-06-08T15:02:25.269Z,6.90
2018-06-08T15:05:50.094Z,7.87
2018-06-08T15:09:15.140Z,11.07
2018-06-08T15:12:39.992Z,9.10
2018-06-08T15:16:05.175Z,9.27
2018-06-08T15:19:30.307Z,9.03
2018-06-08T15:22:55.167Z,9.53
2018-06-08T15:26:20.303Z,11.77
2018-06-08T15:29:45.174Z,12.30
2018-06-08T15:33:09.984Z,11.60
2018-06-08T15:36:35.133Z,13.40
2018-06-08T15:40:00.328Z,12.33
2018-06-08T15:43:25.438Z,11.07
2018-06-08T15:46:50.539Z,12.00
2018-06-08T15:50:15.497Z,15.47
2018-06-08T15:53:40.594Z,14.33
2018-06-08T15:57:05.748Z,13.37
2018-06-08T16:00:30.779Z,12.30
2018-06-08T16:03:55.873Z,10.37
2018-06-08T16:07:21.011Z,12.80
2018-06-08T16:10:46.090Z,10.00
2018-06-08T16:14:21.047Z,8.30
2018-06-08T16:17:45.830Z,11.40
2018-06-08T16:21:10.824Z,12.77
2018-06-08T16:24:35.325Z,11.40
2018-06-08T16:28:01.294Z,11.20
2018-06-08T16:31:26.257Z,13.97
2018-06-08T16:34:51.047Z,10.63
2018-06-08T16:38:15.983Z,8.67
2018-06-08T16:41:40.901Z,11.40
2018-06-08T16:45:05.901Z,7.50
2018-06-08T16:48:30.842Z,11.53
2018-06-08T16:51:58.732Z,9.93
2018-06-08T16:55:24.389Z,9.57
2018-06-08T16:58:49.861Z,12.97
2018-06-08T17:02:15.409Z,10.77
2018-06-08T17:05:41.664Z,10.97
2018-06-08T17:09:08.537Z,9.30
2018-06-08T17:12:35.237Z,8.33
2018-06-08T17:24:00.447Z,6.40
2018-06-08T17:27:25.571Z,8.57
2018-06-08T17:30:50.650Z,8.67
2018-06-08T17:34:16.072Z,8.77
2018-06-08T17:37:43.211Z,10.27
2018-06-08T17:41:08.403Z,8.57
2018-06-08T17:44:34.977Z,9.90
2018-06-08T17:48:01.952Z,11.33
2018-06-08T17:51:27.080Z,8.37
2018-06-08T17:54:54.025Z,7.90
2018-06-08T17:58:19.007Z,10.93
2018-06-08T18:01:44.370Z,9.20
2018-06-08T18:05:09.285Z,9.03
2018-06-08T18:08:34.371Z,6.77
2018-06-08T18:11:59.376Z,7.00
2018-06-08T18:15:24.899Z,6.63
2018-06-08T18:18:50.905Z,7.30
2018-06-08T18:22:15.911Z,8.07
2018-06-08T18:25:41.586Z,6.53
2018-06-08T18:29:07.160Z,9.23
2018-06-08T18:32:33.408Z,7.37
2018-06-08T18:35:59.076Z,6.07
2018-06-08T18:39:24.715Z,7.23
2018-06-08T18:42:51.083Z,8.73
2018-06-08T18:46:17.790Z,9.20
2018-06-08T18:49:44.064Z,9.03
2018-06-08T18:53:09.191Z,9.97
2018-06-08T18:56:34.272Z,10.13
2018-06-08T18:59:59.902Z,13.37
2018-06-08T19:03:25.301Z,13.50
2018-06-08T19:06:52.873Z,11.07
2018-06-08T19:10:18.093Z,10.63
2018-06-08T19:13:43.112Z,12.07
2018-06-08T19:17:07.917Z,11.53
2018-06-08T19:20:33.081Z,11.57
2018-06-08T19:23:58.524Z,11.93
2018-06-08T19:27:23.571Z,11.97
2018-06-08T19:30:48.671Z,12.53
2018-06-08T19:34:14.751Z,12.40
2018-06-08T19:37:39.608Z,12.07
2018-06-08T19:41:04.545Z,12.67
2018-06-08T19:44:30.604Z,13.23
2018-06-08T19:47:55.600Z,12.57
2018-06-08T19:51:20.554Z,10.57
2018-06-08T19:54:45.464Z,11.17
2018-06-08T19:58:11.268Z,10.20
2018-06-08T20:01:37.059Z,10.10
2018-06-08T20:05:02.144Z,10.40
2018-06-08T20:08:27.039Z,10.10
2018-06-08T20:11:52.833Z,9.47
2018-06-08T20:15:19.069Z,11.13
2018-06-08T20:18:44.269Z,15.83
2018-06-08T20:22:09.540Z,12.10
2018-06-08T20:25:37.243Z,11.43
2018-06-08T20:29:02.426Z,13.43
2018-06-08T20:32:27.930Z,11.77
2018-06-08T20:35:53.965Z,13.03
2018-06-08T20:39:19.035Z,14.87
2018-06-08T20:42:44.128Z,15.60
2018-06-08T20:46:09.314Z,16.93
2018-06-08T20:49:34.402Z,16.20
2018-06-08T20:52:59.391Z,18.77
2018-06-08T20:56:25.468Z,17.93
2018-06-08T20:59:50.653Z,20.13
2018-06-08T21:03:15.759Z,19.90
2018-06-08T21:06:40.850Z,19.87
2018-06-08T21:10:06.188Z,18.93
2018-06-08T21:13:31.382Z,18.40
2018-06-08T21:16:56.534Z,19.67
2018-06-08T21:20:21.902Z,18.97
2018-06-08T21:23:46.946Z,17.07
2018-06-08T21:27:11.939Z,19.50
2018-06-08T21:30:36.974Z,19.03
2018-06-08T21:34:02.199Z,16.33
2018-06-08T21:37:27.224Z,16.97
2018-06-08T21:40:52.350Z,15.10
2018-06-08T21:44:17.288Z,13.43
2018-06-08T21:47:42.383Z,14.50
2018-06-08T21:51:07.350Z,11.83
2018-06-08T21:54:32.247Z,9.40
2018-06-08T21:57:58.269Z,8.00
2018-06-08T22:01:23.347Z,7.47
2018-06-08T22:04:48.391Z,8.00
2018-06-08T22:08:13.495Z,8.30
2018-06-08T22:11:39.472Z,8.77
2018-06-08T22:15:05.695Z,9.27
2018-06-08T22:18:37.700Z,8.23
2018-06-08T22:22:02.314Z,8.37
2018-06-08T22:25:27.267Z,9.33
2018-06-08T22:28:52.251Z,8.57
2018-06-08T22:32:17.153Z,9.10
2018-06-08T22:35:41.912Z,8.40
2018-06-08T22:39:08.355Z,8.50
2018-06-08T22:42:33.749Z,7.23
2018-06-08T22:45:58.704Z,6.87
2018-06-08T22:49:23.663Z,6.97
2018-06-08T22:52:48.725Z,8.60
2018-06-08T22:56:13.675Z,8.13
2018-06-08T22:59:38.617Z,8.37
2018-06-08T23:03:03.627Z,8.43
2018-06-08T23:06:28.577Z,9.73
2018-06-08T23:09:53.163Z,8.07
2018-06-08T23:13:18.137Z,7.33
2018-06-08T23:16:43.046Z,6.90
2018-06-08T23:20:07.791Z,7.43
2018-06-08T23:23:33.565Z,6.63
2018-06-08T23:26:58.535Z,7.87
2018-06-08T23:30:23.533Z,8.03
2018-06-08T23:33:48.695Z,7.20
2018-06-08T23:37:13.904Z,7.03
2018-06-08T23:40:38.940Z,6.60
2018-06-08T23:44:03.909Z,7.10
2018-06-08T23:47:28.914Z,5.97
2018-06-08T23:50:53.893Z,6.30
2018-06-08T23:54:18.926Z,7.20
2018-06-08T23:57:43.911Z,7.13
